createdAt,value
2022-11-16T00:01:24.694Z,95.40
2022-11-16T00:06:23.798Z,77.20
2022-11-16T00:09:19.600Z,84.30
2022-11-16T00:11:58.089Z,123.10
2022-11-16T00:14:31.691Z,68.20
2022-11-16T00:17:01.392Z,96.70
2022-11-16T00:19:30.144Z,85.00
2022-11-16T00:21:58.502Z,84.60
2022-11-16T00:24:26.847Z,89.20
2022-11-16T00:26:56.144Z,81.10
2022-11-16T00:29:26.410Z,85.00
2022-11-16T00:31:55.524Z,73.60
2022-11-16T00:34:24.466Z,55.60
2022-11-16T00:36:53.145Z,75.60
2022-11-16T00:39:21.418Z,92.60
2022-11-16T00:41:50.400Z,81.00
2022-11-16T00:44:19.093Z,89.60
2022-11-16T00:46:47.279Z,87.30
2022-11-16T00:49:15.404Z,74.10
2022-11-16T00:51:43.873Z,81.80
2022-11-16T00:54:12.677Z,91.10
2022-11-16T00:56:41.327Z,90.90
2022-11-16T00:59:09.493Z,82.90
2022-11-16T01:01:37.837Z,83.10
2022-11-16T01:04:07.662Z,94.30
2022-11-16T01:06:37.461Z,82.00
2022-11-16T01:09:05.630Z,95.00
2022-11-16T01:11:52.381Z,87.40
2022-11-16T01:14:20.536Z,85.60
2022-11-16T01:16:51.742Z,91.20
2022-11-16T01:19:21.839Z,84.80
2022-11-16T01:21:50.123Z,80.40
2022-11-16T01:24:18.299Z,82.00
2022-11-16T01:26:46.550Z,113.90
2022-11-16T01:29:16.444Z,97.10
2022-11-16T01:31:49.997Z,91.00
2022-11-16T01:34:18.262Z,105.40
2022-11-16T01:36:47.198Z,99.90
2022-11-16T01:39:16.892Z,93.30
2022-11-16T01:41:50.111Z,102.40
2022-11-16T01:44:34.062Z,102.40
2022-11-16T01:47:16.255Z,88.80
2022-11-16T01:49:54.931Z,114.50
2022-11-16T01:52:35.697Z,79.20
2022-11-16T01:55:04.890Z,107.30
2022-11-16T01:57:47.248Z,79.30
2022-11-16T02:00:16.964Z,83.40
2022-11-16T02:02:52.219Z,69.70
2022-11-16T02:06:17.120Z,69.80
2022-11-16T02:09:32.740Z,89.20
2022-11-16T02:12:22.079Z,60.50
2022-11-16T02:15:24.268Z,70.90
2022-11-16T02:18:28.712Z,74.10
2022-11-16T02:21:34.938Z,59.50
2022-11-16T02:24:24.408Z,61.90
2022-11-16T02:27:18.265Z,71.80
2022-11-16T02:29:53.245Z,61.20
2022-11-16T02:32:53.737Z,58.40
2022-11-16T02:35:31.169Z,59.30
2022-11-16T02:38:17.286Z,56.60
2022-11-16T02:40:52.838Z,50.90
2022-11-16T02:43:38.741Z,55.70
2022-11-16T02:46:14.043Z,49.60
2022-11-16T02:48:54.275Z,50.50
2022-11-16T02:51:24.700Z,61.90
2022-11-16T02:54:13.077Z,60.20
2022-11-16T02:57:02.431Z,51.90
2022-11-16T02:59:44.224Z,64.20
2022-11-16T03:02:39.990Z,57.80
2022-11-16T03:05:32.050Z,55.80
2022-11-16T03:08:18.169Z,60.30
2022-11-16T03:11:11.666Z,67.70
2022-11-16T03:13:41.606Z,59.70
2022-11-16T03:16:27.549Z,58.50
2022-11-16T03:19:00.341Z,64.30
2022-11-16T03:22:06.891Z,62.80
2022-11-16T03:24:36.758Z,43.50
2022-11-16T03:27:39.156Z,59.60
2022-11-16T03:30:15.136Z,64.00
2022-11-16T03:32:56.293Z,58.10
2022-11-16T03:35:41.292Z,55.30
2022-11-16T03:38:12.269Z,62.50
2022-11-16T03:40:45.838Z,49.40
2022-11-16T03:43:17.084Z,51.50
2022-11-16T03:45:46.974Z,43.40
2022-11-16T03:48:15.000Z,47.30
2022-11-16T03:50:44.001Z,45.70
2022-11-16T03:53:12.074Z,41.30
2022-11-16T03:55:40.222Z,43.60
2022-11-16T03:58:08.524Z,37.20
2022-11-16T04:00:36.817Z,41.90
2022-11-16T04:03:09.772Z,36.80
2022-11-16T04:05:56.410Z,44.40
2022-11-16T04:08:45.111Z,39.40
2022-11-16T04:11:35.475Z,34.30
2022-11-16T04:14:23.233Z,42.20
2022-11-16T04:17:09.865Z,38.10
2022-11-16T04:19:58.568Z,33.80
2022-11-16T04:22:58.685Z,42.30
2022-11-16T04:25:31.982Z,37.80
2022-11-16T04:28:16.421Z,37.70
2022-11-16T04:31:18.204Z,38.00
2022-11-16T04:34:11.802Z,36.20
2022-11-16T04:37:01.820Z,39.00
2022-11-16T04:39:30.996Z,36.70
2022-11-16T04:42:14.136Z,36.80
2022-11-16T04:45:01.118Z,40.60
2022-11-16T04:47:33.422Z,36.30
2022-11-16T04:50:01.221Z,36.10
2022-11-16T04:52:29.719Z,43.60
2022-11-16T04:54:57.812Z,34.70
2022-11-16T04:57:25.738Z,38.80
2022-11-16T04:59:53.542Z,41.70
2022-11-16T05:02:21.340Z,39.50
2022-11-16T05:04:57.697Z,33.10
2022-11-16T05:07:26.270Z,38.50
2022-11-16T05:10:00.955Z,47.60
2022-11-16T05:12:29.894Z,41.20
2022-11-16T05:15:00.381Z,39.30
2022-11-16T05:17:30.035Z,40.60
2022-11-16T05:20:17.976Z,46.40
2022-11-16T05:22:57.824Z,46.10
2022-11-16T05:25:33.787Z,40.90
2022-11-16T05:28:05.398Z,45.20
2022-11-16T05:30:36.541Z,41.50
2022-11-16T05:33:04.499Z,340.10
2022-11-16T05:35:34.570Z,44.60
2022-11-16T05:38:02.540Z,48.20
2022-11-16T05:40:32.941Z,41.00
2022-11-16T05:43:01.784Z,48.30
2022-11-16T05:45:31.696Z,44.70
2022-11-16T05:48:00.219Z,37.80
2022-11-16T05:50:28.074Z,40.40
2022-11-16T05:53:07.370Z,41.90
2022-11-16T05:55:36.016Z,39.20
2022-11-16T05:58:03.849Z,39.80
2022-11-16T06:00:31.889Z,42.80
2022-11-16T06:02:59.935Z,39.80
2022-11-16T06:05:30.804Z,38.00
2022-11-16T06:07:59.540Z,35.70
2022-11-16T06:10:27.355Z,40.70
2022-11-16T06:12:55.431Z,20.30
2022-11-16T06:15:23.964Z,43.20
2022-11-16T06:17:51.738Z,37.60
2022-11-16T06:20:21.186Z,35.60
2022-11-16T06:22:49.004Z,32.30
2022-11-16T06:25:18.264Z,35.70
2022-11-16T06:27:46.072Z,32.80
2022-11-16T06:30:16.755Z,28.60
2022-11-16T06:32:45.794Z,32.40
2022-11-16T06:35:13.610Z,33.80
2022-11-16T06:37:41.464Z,28.40
2022-11-16T06:40:12.944Z,33.50
2022-11-16T06:42:43.379Z,37.70
2022-11-16T06:45:14.898Z,30.40
2022-11-16T06:47:46.822Z,31.20
2022-11-16T06:50:19.119Z,34.20
2022-11-16T06:52:49.734Z,33.50
2022-11-16T06:55:18.182Z,24.50
2022-11-16T06:57:46.452Z,35.60
2022-11-16T07:00:17.737Z,30.40
2022-11-16T07:02:46.366Z,35.30
2022-11-16T07:05:16.325Z,29.00
2022-11-16T07:07:44.191Z,29.80
2022-11-16T07:10:13.445Z,24.30
2022-11-16T07:12:42.823Z,35.70
2022-11-16T07:15:11.498Z,30.60
2022-11-16T07:17:42.852Z,31.30
2022-11-16T07:20:12.026Z,27.60
2022-11-16T07:22:40.720Z,36.00
2022-11-16T07:25:11.957Z,33.60
2022-11-16T07:27:39.820Z,29.20
2022-11-16T07:30:08.763Z,33.40
2022-11-16T07:32:45.609Z,28.70
2022-11-16T07:35:33.775Z,22.60
2022-11-16T07:38:03.190Z,36.20
2022-11-16T07:40:31.851Z,30.70
2022-11-16T07:42:59.828Z,27.80
2022-11-16T07:45:34.453Z,32.00
2022-11-16T07:48:07.156Z,29.10
2022-11-16T07:50:54.137Z,29.20
2022-11-16T07:53:24.302Z,26.30
2022-11-16T07:55:54.400Z,30.20
2022-11-16T07:58:23.461Z,34.00
2022-11-16T08:00:51.590Z,30.80
2022-11-16T08:03:24.452Z,30.20
2022-11-16T08:06:21.125Z,35.50
2022-11-16T08:08:52.427Z,31.40
2022-11-16T08:11:25.453Z,30.40
2022-11-16T08:13:55.774Z,27.80
2022-11-16T08:16:24.123Z,30.10
2022-11-16T08:18:56.975Z,39.40
2022-11-16T08:21:25.000Z,41.20
2022-11-16T08:23:58.127Z,27.60
2022-11-16T08:26:27.492Z,30.70
2022-11-16T08:29:00.114Z,32.60
2022-11-16T08:31:31.205Z,25.80
2022-11-16T08:34:12.557Z,22.40
2022-11-16T08:36:43.553Z,47.40
2022-11-16T08:39:11.546Z,26.00
2022-11-16T08:41:42.174Z,16.80
2022-11-16T08:44:11.640Z,20.60
2022-11-16T08:46:41.703Z,17.50
2022-11-16T08:49:17.541Z,19.00
2022-11-16T08:51:45.489Z,18.60
2022-11-16T08:54:13.425Z,14.40
2022-11-16T08:56:42.039Z,14.70
2022-11-16T08:59:10.281Z,15.80
2022-11-16T09:01:41.203Z,13.70
2022-11-16T09:04:09.635Z,17.70
2022-11-16T09:06:37.931Z,15.30
2022-11-16T09:09:05.952Z,15.80
2022-11-16T09:11:34.086Z,44.30
2022-11-16T09:14:02.271Z,24.80
2022-11-16T09:16:30.289Z,10.60
2022-11-16T09:18:58.245Z,15.10
2022-11-16T09:21:30.921Z,11.90
2022-11-16T09:23:59.378Z,17.30
2022-11-16T09:26:27.488Z,16.30
2022-11-16T09:28:58.825Z,22.10
2022-11-16T09:31:28.797Z,64.90
2022-11-16T09:33:59.075Z,11.50
2022-11-16T09:36:28.835Z,11.90
2022-11-16T09:42:16.724Z,13.50
2022-11-16T09:45:09.119Z,11.30
2022-11-16T09:47:57.646Z,16.60
2022-11-16T09:50:46.562Z,17.10
2022-11-16T09:53:26.205Z,16.70
2022-11-16T09:56:28.702Z,17.40
2022-11-16T09:59:31.828Z,18.50
2022-11-16T10:02:24.428Z,21.50
2022-11-16T10:05:10.722Z,19.30
2022-11-16T10:07:58.495Z,24.70
2022-11-16T10:10:37.675Z,19.20
2022-11-16T10:13:35.539Z,20.80
2022-11-16T10:16:31.132Z,22.50
2022-11-16T10:19:18.313Z,27.20
2022-11-16T10:22:13.335Z,21.50
2022-11-16T10:25:08.873Z,19.70
2022-11-16T10:28:17.742Z,27.10
2022-11-16T10:31:09.493Z,22.10
2022-11-16T10:33:39.500Z,21.10
2022-11-16T10:36:16.122Z,55.10
2022-11-16T10:38:44.269Z,20.40
2022-11-16T10:41:23.713Z,33.50
2022-11-16T10:43:51.834Z,20.90
2022-11-16T10:46:42.164Z,20.60
2022-11-16T10:49:36.910Z,18.80
2022-11-16T10:52:04.935Z,22.80
2022-11-16T10:54:32.911Z,20.60
2022-11-16T10:57:14.040Z,17.30
2022-11-16T10:59:55.549Z,13.80
2022-11-16T11:02:35.140Z,17.40
2022-11-16T11:05:22.014Z,14.80
2022-11-16T11:08:00.044Z,12.20
2022-11-16T11:10:54.136Z,11.30
2022-11-16T11:13:26.727Z,16.10
2022-11-16T11:16:16.699Z,15.90
2022-11-16T11:18:44.882Z,9.10
2022-11-16T11:21:19.329Z,13.90
2022-11-16T11:23:52.411Z,23.20
2022-11-16T11:26:40.887Z,10.10
2022-11-16T11:29:31.565Z,11.40
2022-11-16T11:32:23.883Z,12.00
2022-11-16T11:34:56.094Z,11.00
2022-11-16T11:37:35.102Z,11.00
2022-11-16T11:40:26.682Z,8.50
2022-11-16T11:43:01.633Z,13.20
2022-11-16T11:45:44.795Z,9.40
2022-11-16T11:51:35.719Z,9.80
2022-11-16T11:54:05.100Z,6.30
2022-11-16T11:56:34.131Z,8.30
2022-11-16T11:59:04.779Z,9.50
2022-11-16T12:02:07.222Z,11.60
2022-11-16T12:05:16.157Z,7.90
2022-11-16T12:08:23.158Z,6.30
2022-11-16T12:11:17.904Z,9.10
2022-11-16T12:14:00.843Z,6.70
2022-11-16T12:16:58.057Z,4.50
2022-11-16T12:20:15.214Z,6.00
2022-11-16T12:23:38.901Z,6.90
2022-11-16T12:26:16.879Z,6.80
2022-11-16T12:29:05.933Z,7.50
2022-11-16T12:32:01.797Z,11.70
2022-11-16T12:35:06.810Z,8.40
2022-11-16T12:38:10.093Z,8.90
2022-11-16T12:40:59.542Z,16.80
2022-11-16T12:43:53.458Z,7.70
2022-11-16T12:47:18.043Z,6.90
2022-11-16T12:50:08.616Z,5.30
2022-11-16T12:53:05.486Z,7.60
2022-11-16T12:56:05.855Z,7.10
2022-11-16T12:59:01.872Z,6.30
2022-11-16T13:02:07.097Z,4.70
2022-11-16T13:04:47.270Z,5.30
2022-11-16T13:07:31.845Z,8.70
2022-11-16T13:10:13.736Z,6.20
2022-11-16T13:12:45.565Z,15.70
2022-11-16T13:15:20.764Z,6.90
2022-11-16T13:18:15.613Z,5.20
2022-11-16T13:21:17.818Z,9.60
2022-11-16T13:24:02.721Z,5.00
2022-11-16T13:26:45.009Z,6.90
2022-11-16T13:29:36.952Z,6.10
2022-11-16T13:32:21.386Z,7.90
2022-11-16T13:34:52.094Z,8.70
2022-11-16T13:37:38.620Z,7.10
2022-11-16T13:40:06.859Z,6.40
2022-11-16T13:42:45.455Z,6.80
2022-11-16T13:45:21.981Z,8.00
2022-11-16T13:47:56.768Z,6.70
2022-11-16T13:50:38.957Z,6.80
2022-11-16T13:56:50.151Z,13.30
2022-11-16T13:59:25.358Z,6.30
2022-11-16T14:02:04.594Z,9.80
2022-11-16T14:04:54.678Z,6.70
2022-11-16T14:07:49.687Z,7.80
2022-11-16T14:10:33.241Z,8.50
2022-11-16T14:13:06.136Z,6.90
2022-11-16T14:18:07.039Z,8.20
2022-11-16T14:20:37.839Z,8.70
2022-11-16T14:23:30.552Z,9.10
2022-11-16T14:26:19.582Z,6.70
2022-11-16T14:29:06.599Z,6.10
2022-11-16T14:31:50.950Z,7.10
2022-11-16T14:34:41.595Z,6.00
2022-11-16T14:37:21.963Z,50.40
2022-11-16T14:39:53.754Z,8.30
2022-11-16T14:42:38.177Z,7.60
2022-11-16T14:45:29.397Z,7.40
2022-11-16T14:48:13.291Z,8.20
2022-11-16T14:50:46.231Z,7.10
2022-11-16T14:53:19.631Z,7.00
2022-11-16T14:55:47.520Z,8.80
2022-11-16T14:58:22.624Z,48.10
2022-11-16T15:00:59.535Z,11.30
2022-11-16T15:03:34.458Z,7.60
2022-11-16T15:06:06.181Z,6.30
2022-11-16T15:08:51.736Z,7.90
2022-11-16T15:11:54.752Z,13.40
2022-11-16T15:14:31.552Z,7.90
2022-11-16T15:17:00.270Z,9.50
2022-11-16T15:19:32.046Z,9.70
2022-11-16T15:22:04.146Z,8.00
2022-11-16T15:24:35.082Z,7.30
2022-11-16T15:27:38.049Z,7.90
2022-11-16T15:30:45.918Z,7.70
2022-11-16T15:33:24.341Z,7.10
2022-11-16T15:35:53.997Z,9.60
2022-11-16T15:38:26.274Z,125.80
2022-11-16T15:41:05.511Z,24.60
2022-11-16T15:44:01.256Z,9.70
2022-11-16T15:46:33.984Z,8.20
2022-11-16T15:49:02.778Z,6.90
2022-11-16T15:51:31.137Z,9.10
2022-11-16T15:54:23.805Z,7.20
2022-11-16T15:56:55.673Z,7.80
2022-11-16T15:59:33.955Z,6.70
2022-11-16T16:02:03.228Z,7.40
2022-11-16T16:04:31.343Z,6.70
2022-11-16T16:07:00.936Z,7.80
2022-11-16T16:09:39.269Z,9.20
2022-11-16T16:12:26.399Z,106.10
2022-11-16T16:15:21.052Z,14.60
2022-11-16T16:17:50.594Z,9.10
2022-11-16T16:20:25.310Z,7.50
2022-11-16T16:22:54.328Z,9.10
2022-11-16T16:25:34.536Z,7.70
2022-11-16T16:28:03.138Z,9.60
2022-11-16T16:30:34.743Z,8.20
2022-11-16T16:33:02.706Z,8.60
2022-11-16T16:35:30.741Z,9.80
2022-11-16T16:38:01.070Z,8.20
2022-11-16T16:40:29.234Z,9.60
2022-11-16T16:42:58.058Z,12.40
2022-11-16T16:45:38.733Z,9.30
2022-11-16T16:48:09.077Z,9.40
2022-11-16T16:50:37.889Z,10.30
2022-11-16T16:53:06.067Z,7.20
2022-11-16T16:55:37.691Z,8.20
2022-11-16T16:58:05.912Z,9.50
2022-11-16T17:00:34.291Z,9.90
2022-11-16T17:03:02.409Z,9.10
2022-11-16T17:05:33.925Z,8.80
2022-11-16T17:08:01.821Z,7.70
2022-11-16T17:10:29.805Z,8.90
2022-11-16T17:12:58.404Z,8.60
2022-11-16T17:15:26.372Z,15.30
2022-11-16T17:17:54.433Z,10.70
2022-11-16T17:20:22.309Z,11.90
2022-11-16T17:22:50.167Z,12.60
2022-11-16T17:25:18.190Z,12.00
2022-11-16T17:27:46.224Z,11.60
2022-11-16T17:30:15.081Z,11.80
2022-11-16T17:32:43.066Z,21.90
2022-11-16T17:35:11.121Z,30.10
2022-11-16T17:37:39.198Z,12.00
2022-11-16T17:40:08.799Z,13.70
2022-11-16T17:42:36.836Z,14.60
2022-11-16T17:45:05.981Z,11.60
2022-11-16T17:47:34.053Z,6.90
2022-11-16T17:50:02.073Z,12.50
2022-11-16T17:52:30.100Z,13.50
2022-11-16T17:54:58.021Z,15.30
2022-11-16T17:57:26.103Z,10.60
2022-11-16T17:59:54.054Z,12.60
2022-11-16T18:02:22.074Z,12.90
2022-11-16T18:04:51.418Z,13.30
2022-11-16T18:07:19.693Z,11.70
2022-11-16T18:09:47.872Z,12.60
2022-11-16T18:12:16.129Z,13.30
2022-11-16T18:14:59.943Z,13.60
2022-11-16T18:17:34.817Z,11.10
2022-11-16T18:20:05.005Z,11.70
2022-11-16T18:22:33.105Z,12.90
2022-11-16T18:25:02.373Z,10.90
2022-11-16T18:27:31.850Z,10.80
2022-11-16T18:29:59.901Z,9.20
2022-11-16T18:32:29.512Z,8.20
2022-11-16T18:34:57.586Z,16.00
2022-11-16T18:37:25.450Z,7.30
2022-11-16T18:39:53.488Z,11.70
2022-11-16T18:42:21.411Z,24.10
2022-11-16T18:44:51.264Z,11.90
2022-11-16T18:47:19.343Z,10.40
2022-11-16T18:49:47.270Z,10.30
2022-11-16T18:52:15.116Z,8.80
2022-11-16T18:54:43.039Z,11.20
2022-11-16T18:57:10.965Z,8.70
2022-11-16T18:59:38.823Z,9.50
2022-11-16T19:02:06.929Z,7.30
2022-11-16T19:04:34.949Z,38.70
2022-11-16T19:07:02.996Z,11.20
2022-11-16T19:09:31.317Z,8.90
2022-11-16T19:11:59.292Z,7.70
2022-11-16T19:14:27.109Z,12.00
2022-11-16T19:16:57.321Z,9.30
2022-11-16T19:19:27.666Z,7.50
2022-11-16T19:21:56.923Z,7.70
2022-11-16T19:24:24.935Z,12.10
2022-11-16T19:26:52.960Z,7.50
2022-11-16T19:29:20.900Z,8.00
2022-11-16T19:31:48.813Z,6.40
2022-11-16T19:34:16.686Z,5.30
2022-11-16T19:36:44.682Z,10.70
2022-11-16T19:39:12.616Z,8.90
2022-11-16T19:41:40.714Z,9.00
2022-11-16T19:44:11.288Z,10.70
2022-11-16T19:50:28.552Z,9.10
2022-11-16T19:54:52.536Z,11.20
2022-11-16T19:58:10.299Z,29.20
2022-11-16T19:59:43.328Z,8.80
2022-11-16T20:02:28.705Z,10.40
2022-11-16T20:04:56.885Z,10.30
2022-11-16T20:07:25.393Z,12.00
2022-11-16T20:09:54.514Z,10.00
2022-11-16T20:12:22.513Z,10.00
2022-11-16T20:14:52.999Z,19.10
2022-11-16T20:17:26.556Z,9.30
2022-11-16T20:19:57.614Z,11.00
2022-11-16T20:22:28.598Z,9.50
2022-11-16T20:24:56.602Z,8.10
2022-11-16T20:27:25.819Z,9.00
2022-11-16T20:29:54.971Z,9.70
2022-11-16T20:32:25.345Z,10.60
2022-11-16T20:34:53.379Z,7.00
2022-11-16T20:37:21.385Z,9.60
2022-11-16T20:39:52.713Z,12.20
2022-11-16T20:42:20.588Z,20.10
2022-11-16T20:44:48.541Z,10.10
2022-11-16T20:47:16.745Z,9.80
2022-11-16T20:49:44.794Z,9.90
2022-11-16T20:52:13.128Z,7.40
2022-11-16T20:54:58.450Z,8.60
2022-11-16T20:57:40.261Z,11.30
2022-11-16T21:00:16.849Z,23.50
2022-11-16T21:02:46.023Z,9.40
2022-11-16T21:05:13.968Z,6.90
2022-11-16T21:07:43.958Z,7.90
2022-11-16T21:10:20.946Z,8.80
2022-11-16T21:13:08.361Z,12.20
2022-11-16T21:15:36.264Z,9.50
2022-11-16T21:18:04.476Z,7.40
2022-11-16T21:20:32.373Z,9.60
2022-11-16T21:23:00.260Z,9.80
2022-11-16T21:25:28.093Z,10.20
2022-11-16T21:27:57.000Z,77.30
2022-11-16T21:30:24.824Z,9.80
2022-11-16T21:32:52.718Z,11.90
2022-11-16T21:35:20.983Z,10.00
2022-11-16T21:37:49.015Z,16.60
2022-11-16T21:40:17.064Z,13.90
2022-11-16T21:42:45.060Z,10.40
2022-11-16T21:45:24.509Z,10.40
2022-11-16T21:47:52.503Z,10.00
2022-11-16T21:50:35.781Z,11.80
2022-11-16T21:53:05.296Z,11.30
2022-11-16T21:55:33.824Z,10.60
2022-11-16T21:58:05.844Z,11.20
2022-11-16T22:04:16.243Z,13.10
2022-11-16T22:07:13.043Z,9.90
2022-11-16T22:09:41.035Z,10.90
2022-11-16T22:12:08.948Z,10.00
2022-11-16T22:14:39.309Z,13.40
2022-11-16T22:17:08.536Z,8.20
2022-11-16T22:19:36.482Z,10.40
2022-11-16T22:22:04.442Z,13.40
2022-11-16T22:24:32.473Z,10.80
2022-11-16T22:27:00.621Z,13.10
2022-11-16T22:29:28.517Z,11.90
2022-11-16T22:31:56.403Z,11.60
2022-11-16T22:34:24.426Z,12.10
2022-11-16T22:36:52.400Z,9.80
2022-11-16T22:39:22.781Z,11.90
2022-11-16T22:41:50.707Z,13.30
2022-11-16T22:44:18.570Z,16.40
2022-11-16T22:46:46.569Z,11.70
2022-11-16T22:49:14.401Z,12.50
2022-11-16T22:51:46.027Z,10.70
2022-11-16T22:54:15.636Z,11.20
2022-11-16T22:56:43.646Z,14.40
2022-11-16T22:59:12.536Z,11.60
2022-11-16T23:01:40.836Z,15.30
2022-11-16T23:04:09.586Z,15.00
2022-11-16T23:10:34.303Z,15.40
2022-11-16T23:13:16.789Z,16.10
2022-11-16T23:15:50.789Z,13.20
2022-11-16T23:18:19.679Z,11.50
2022-11-16T23:21:09.192Z,12.80
2022-11-16T23:23:57.128Z,23.70
2022-11-16T23:26:46.162Z,18.30
2022-11-16T23:29:14.135Z,15.70
2022-11-16T23:31:42.106Z,12.30
2022-11-16T23:34:09.958Z,10.50
2022-11-16T23:36:37.887Z,13.10
2022-11-16T23:39:05.873Z,13.10
2022-11-16T23:41:52.259Z,11.50
2022-11-16T23:44:20.196Z,11.30
2022-11-16T23:46:48.059Z,19.30
2022-11-16T23:49:15.960Z,41.20
2022-11-16T23:51:46.102Z,26.80
2022-11-16T23:54:14.026Z,8.40
2022-11-16T23:56:41.990Z,14.40
2022-11-16T23:59:09.906Z,12.40
